sensor_id;sensor_type;location;lat;lon;timestamp;temperature;humidity
4312;DHT22;2169;49.086;9.284;2022-10-20T00:02:20;13.10;72.10
4312;DHT22;2169;49.086;9.284;2022-10-20T00:04:46;13.10;72.20
4312;DHT22;2169;49.086;9.284;2022-10-20T00:07:13;13.10;72.30
4312;DHT22;2169;49.086;9.284;2022-10-20T00:09:40;13.00;72.20
4312;DHT22;2169;49.086;9.284;2022-10-20T00:12:07;13.00;72.20
4312;DHT22;2169;49.086;9.284;2022-10-20T00:14:33;13.00;72.20
4312;DHT22;2169;49.086;9.284;2022-10-20T00:17:01;13.00;72.20
4312;DHT22;2169;49.086;9.284;2022-10-20T00:19:29;13.00;72.30
4312;DHT22;2169;49.086;9.284;2022-10-20T00:21:57;13.00;72.30
4312;DHT22;2169;49.086;9.284;2022-10-20T00:24:24;13.00;72.50
4312;DHT22;2169;49.086;9.284;2022-10-20T00:26:51;13.00;72.70
4312;DHT22;2169;49.086;9.284;2022-10-20T00:29:17;13.00;72.70
4312;DHT22;2169;49.086;9.284;2022-10-20T00:31:44;13.00;72.70
4312;DHT22;2169;49.086;9.284;2022-10-20T00:34:12;13.00;72.80
4312;DHT22;2169;49.086;9.284;2022-10-20T00:36:39;12.90;72.60
4312;DHT22;2169;49.086;9.284;2022-10-20T00:39:06;13.00;72.80
4312;DHT22;2169;49.086;9.284;2022-10-20T00:41:33;13.00;72.80
4312;DHT22;2169;49.086;9.284;2022-10-20T00:44:01;12.90;72.70
4312;DHT22;2169;49.086;9.284;2022-10-20T00:46:32;12.90;72.70
4312;DHT22;2169;49.086;9.284;2022-10-20T00:49:06;12.90;72.70
4312;DHT22;2169;49.086;9.284;2022-10-20T00:51:35;12.90;72.70
4312;DHT22;2169;49.086;9.284;2022-10-20T00:54:07;12.90;72.70
4312;DHT22;2169;49.086;9.284;2022-10-20T00:56:35;12.90;72.60
4312;DHT22;2169;49.086;9.284;2022-10-20T00:59:04;12.90;72.50
4312;DHT22;2169;49.086;9.284;2022-10-20T01:01:31;12.80;72.50
4312;DHT22;2169;49.086;9.284;2022-10-20T01:03:58;12.80;72.50
4312;DHT22;2169;49.086;9.284;2022-10-20T01:06:26;12.80;72.50
4312;DHT22;2169;49.086;9.284;2022-10-20T01:08:54;12.70;72.40
4312;DHT22;2169;49.086;9.284;2022-10-20T01:11:28;12.70;72.40
4312;DHT22;2169;49.086;9.284;2022-10-20T01:14:08;12.70;72.50
4312;DHT22;2169;49.086;9.284;2022-10-20T01:16:44;12.60;72.50
4312;DHT22;2169;49.086;9.284;2022-10-20T01:22:15;12.60;72.60
4312;DHT22;2169;49.086;9.284;2022-10-20T01:25:03;12.50;72.50
4312;DHT22;2169;49.086;9.284;2022-10-20T01:27:35;12.50;72.60
4312;DHT22;2169;49.086;9.284;2022-10-20T01:30:08;12.50;72.70
4312;DHT22;2169;49.086;9.284;2022-10-20T01:32:49;12.50;72.70
4312;DHT22;2169;49.086;9.284;2022-10-20T01:35:24;12.50;72.70
4312;DHT22;2169;49.086;9.284;2022-10-20T01:37:58;12.50;72.70
4312;DHT22;2169;49.086;9.284;2022-10-20T01:40:29;12.40;72.70
4312;DHT22;2169;49.086;9.284;2022-10-20T01:43:03;12.40;72.70
4312;DHT22;2169;49.086;9.284;2022-10-20T01:45:33;12.40;72.70
4312;DHT22;2169;49.086;9.284;2022-10-20T01:48:03;12.40;72.70
4312;DHT22;2169;49.086;9.284;2022-10-20T01:50:31;12.40;72.70
4312;DHT22;2169;49.086;9.284;2022-10-20T01:52:59;12.40;72.70
4312;DHT22;2169;49.086;9.284;2022-10-20T01:55:25;12.30;72.50
4312;DHT22;2169;49.086;9.284;2022-10-20T01:58:13;12.30;72.60
4312;DHT22;2169;49.086;9.284;2022-10-20T02:00:42;12.30;72.50
4312;DHT22;2169;49.086;9.284;2022-10-20T02:03:30;12.30;72.60
4312;DHT22;2169;49.086;9.284;2022-10-20T02:06:15;12.30;72.70
4312;DHT22;2169;49.086;9.284;2022-10-20T02:08:46;12.20;72.60
4312;DHT22;2169;49.086;9.284;2022-10-20T02:11:19;12.20;72.60
4312;DHT22;2169;49.086;9.284;2022-10-20T02:13:49;12.20;72.60
4312;DHT22;2169;49.086;9.284;2022-10-20T02:16:20;12.20;72.60
4312;DHT22;2169;49.086;9.284;2022-10-20T02:18:49;12.20;72.70
4312;DHT22;2169;49.086;9.284;2022-10-20T02:21:16;12.10;72.60
4312;DHT22;2169;49.086;9.284;2022-10-20T02:23:44;12.10;72.60
4312;DHT22;2169;49.086;9.284;2022-10-20T02:26:14;12.10;72.70
4312;DHT22;2169;49.086;9.284;2022-10-20T02:28:45;12.10;72.70
4312;DHT22;2169;49.086;9.284;2022-10-20T02:31:15;12.10;72.90
4312;DHT22;2169;49.086;9.284;2022-10-20T02:33:42;12.10;72.90
4312;DHT22;2169;49.086;9.284;2022-10-20T02:36:14;12.10;72.90
4312;DHT22;2169;49.086;9.284;2022-10-20T02:38:42;12.10;72.90
4312;DHT22;2169;49.086;9.284;2022-10-20T02:41:09;12.10;73.00
4312;DHT22;2169;49.086;9.284;2022-10-20T02:43:35;12.10;72.90
4312;DHT22;2169;49.086;9.284;2022-10-20T02:46:02;12.10;72.90
4312;DHT22;2169;49.086;9.284;2022-10-20T02:48:31;12.10;73.00
4312;DHT22;2169;49.086;9.284;2022-10-20T02:50:57;12.10;73.00
4312;DHT22;2169;49.086;9.284;2022-10-20T02:53:24;12.00;72.90
4312;DHT22;2169;49.086;9.284;2022-10-20T02:55:51;12.10;73.10
4312;DHT22;2169;49.086;9.284;2022-10-20T02:58:17;12.00;73.10
4312;DHT22;2169;49.086;9.284;2022-10-20T03:00:44;12.00;73.10
4312;DHT22;2169;49.086;9.284;2022-10-20T03:03:11;12.00;73.10
4312;DHT22;2169;49.086;9.284;2022-10-20T03:05:40;12.00;73.10
4312;DHT22;2169;49.086;9.284;2022-10-20T03:08:09;12.00;73.80
4312;DHT22;2169;49.086;9.284;2022-10-20T03:10:36;12.00;73.20
4312;DHT22;2169;49.086;9.284;2022-10-20T03:13:03;12.00;73.20
4312;DHT22;2169;49.086;9.284;2022-10-20T03:15:30;12.00;73.30
4312;DHT22;2169;49.086;9.284;2022-10-20T03:17:57;12.00;73.30
4312;DHT22;2169;49.086;9.284;2022-10-20T03:20:24;12.00;73.30
4312;DHT22;2169;49.086;9.284;2022-10-20T03:22:52;12.00;73.20
4312;DHT22;2169;49.086;9.284;2022-10-20T03:25:19;11.90;73.20
4312;DHT22;2169;49.086;9.284;2022-10-20T03:27:45;11.90;73.20
4312;DHT22;2169;49.086;9.284;2022-10-20T03:30:12;11.90;73.20
4312;DHT22;2169;49.086;9.284;2022-10-20T03:32:39;11.90;73.30
4312;DHT22;2169;49.086;9.284;2022-10-20T03:35:06;11.90;73.30
4312;DHT22;2169;49.086;9.284;2022-10-20T03:37:33;11.90;73.30
4312;DHT22;2169;49.086;9.284;2022-10-20T03:40:02;11.90;73.40
4312;DHT22;2169;49.086;9.284;2022-10-20T03:42:28;11.90;73.30
4312;DHT22;2169;49.086;9.284;2022-10-20T03:44:55;11.90;73.40
4312;DHT22;2169;49.086;9.284;2022-10-20T03:47:22;11.90;73.40
4312;DHT22;2169;49.086;9.284;2022-10-20T03:49:49;11.90;73.40
4312;DHT22;2169;49.086;9.284;2022-10-20T03:52:15;11.90;73.40
4312;DHT22;2169;49.086;9.284;2022-10-20T03:54:42;11.80;73.30
4312;DHT22;2169;49.086;9.284;2022-10-20T03:57:10;11.80;73.30
4312;DHT22;2169;49.086;9.284;2022-10-20T03:59:37;11.80;73.30
4312;DHT22;2169;49.086;9.284;2022-10-20T04:02:04;11.80;73.30
4312;DHT22;2169;49.086;9.284;2022-10-20T04:04:30;11.70;73.20
4312;DHT22;2169;49.086;9.284;2022-10-20T04:06:57;11.70;73.30
4312;DHT22;2169;49.086;9.284;2022-10-20T04:09:24;11.70;73.30
4312;DHT22;2169;49.086;9.284;2022-10-20T04:11:50;11.70;73.30
4312;DHT22;2169;49.086;9.284;2022-10-20T04:14:18;11.70;73.40
4312;DHT22;2169;49.086;9.284;2022-10-20T04:16:45;11.70;73.40
4312;DHT22;2169;49.086;9.284;2022-10-20T04:19:12;11.70;73.50
4312;DHT22;2169;49.086;9.284;2022-10-20T04:21:39;11.70;74.10
4312;DHT22;2169;49.086;9.284;2022-10-20T04:24:06;11.70;73.50
4312;DHT22;2169;49.086;9.284;2022-10-20T04:26:32;11.70;73.60
4312;DHT22;2169;49.086;9.284;2022-10-20T04:28:59;11.70;73.60
4312;DHT22;2169;49.086;9.284;2022-10-20T04:31:28;11.70;73.60
4312;DHT22;2169;49.086;9.284;2022-10-20T04:33:55;11.70;73.70
4312;DHT22;2169;49.086;9.284;2022-10-20T04:36:21;11.70;73.60
4312;DHT22;2169;49.086;9.284;2022-10-20T04:38:48;11.80;73.80
4312;DHT22;2169;49.086;9.284;2022-10-20T04:41:15;11.80;73.80
4312;DHT22;2169;49.086;9.284;2022-10-20T04:43:42;11.80;73.80
4312;DHT22;2169;49.086;9.284;2022-10-20T04:46:09;11.80;73.80
4312;DHT22;2169;49.086;9.284;2022-10-20T04:48:41;11.80;73.90
4312;DHT22;2169;49.086;9.284;2022-10-20T04:51:10;11.80;74.00
4312;DHT22;2169;49.086;9.284;2022-10-20T04:53:37;11.80;73.90
4312;DHT22;2169;49.086;9.284;2022-10-20T04:56:05;11.80;73.90
4312;DHT22;2169;49.086;9.284;2022-10-20T04:58:33;11.80;73.90
4312;DHT22;2169;49.086;9.284;2022-10-20T05:01:00;11.80;74.00
4312;DHT22;2169;49.086;9.284;2022-10-20T05:03:27;11.80;74.00
4312;DHT22;2169;49.086;9.284;2022-10-20T05:06:07;11.80;74.10
4312;DHT22;2169;49.086;9.284;2022-10-20T05:08:33;11.80;74.10
4312;DHT22;2169;49.086;9.284;2022-10-20T05:11:00;11.80;74.10
4312;DHT22;2169;49.086;9.284;2022-10-20T05:13:27;11.80;74.20
4312;DHT22;2169;49.086;9.284;2022-10-20T05:15:54;11.80;74.20
4312;DHT22;2169;49.086;9.284;2022-10-20T05:18:20;11.80;74.30
4312;DHT22;2169;49.086;9.284;2022-10-20T05:20:47;11.80;74.30
4312;DHT22;2169;49.086;9.284;2022-10-20T05:23:15;11.80;74.30
4312;DHT22;2169;49.086;9.284;2022-10-20T05:25:42;11.80;74.40
4312;DHT22;2169;49.086;9.284;2022-10-20T05:28:09;11.80;74.40
4312;DHT22;2169;49.086;9.284;2022-10-20T05:30:36;11.80;74.50
4312;DHT22;2169;49.086;9.284;2022-10-20T05:33:03;11.80;74.50
4312;DHT22;2169;49.086;9.284;2022-10-20T05:35:30;11.80;74.60
4312;DHT22;2169;49.086;9.284;2022-10-20T05:37:57;11.80;74.60
4312;DHT22;2169;49.086;9.284;2022-10-20T05:40:25;11.80;74.70
4312;DHT22;2169;49.086;9.284;2022-10-20T05:42:53;11.90;74.80
4312;DHT22;2169;49.086;9.284;2022-10-20T05:45:19;11.80;74.70
4312;DHT22;2169;49.086;9.284;2022-10-20T05:47:46;11.90;75.10
4312;DHT22;2169;49.086;9.284;2022-10-20T05:50:13;11.90;74.90
4312;DHT22;2169;49.086;9.284;2022-10-20T05:52:39;11.90;74.90
4312;DHT22;2169;49.086;9.284;2022-10-20T05:55:08;11.90;74.90
4312;DHT22;2169;49.086;9.284;2022-10-20T05:57:36;11.90;75.00
4312;DHT22;2169;49.086;9.284;2022-10-20T06:00:03;11.90;75.00
4312;DHT22;2169;49.086;9.284;2022-10-20T06:02:30;11.90;75.00
4312;DHT22;2169;49.086;9.284;2022-10-20T06:04:57;11.90;75.00
4312;DHT22;2169;49.086;9.284;2022-10-20T06:07:24;11.90;75.00
4312;DHT22;2169;49.086;9.284;2022-10-20T06:09:50;12.00;75.20
4312;DHT22;2169;49.086;9.284;2022-10-20T06:12:17;12.00;75.20
4312;DHT22;2169;49.086;9.284;2022-10-20T06:14:45;12.00;75.30
4312;DHT22;2169;49.086;9.284;2022-10-20T06:17:12;12.00;75.30
4312;DHT22;2169;49.086;9.284;2022-10-20T06:19:39;12.00;75.40
4312;DHT22;2169;49.086;9.284;2022-10-20T06:22:05;12.00;75.40
4312;DHT22;2169;49.086;9.284;2022-10-20T06:24:32;12.00;75.40
4312;DHT22;2169;49.086;9.284;2022-10-20T06:26:59;12.00;75.50
4312;DHT22;2169;49.086;9.284;2022-10-20T06:29:26;12.00;75.60
4312;DHT22;2169;49.086;9.284;2022-10-20T06:31:54;12.10;75.70
4312;DHT22;2169;49.086;9.284;2022-10-20T06:34:22;12.10;75.80
4312;DHT22;2169;49.086;9.284;2022-10-20T06:36:50;12.10;75.80
4312;DHT22;2169;49.086;9.284;2022-10-20T06:39:19;12.10;75.80
4312;DHT22;2169;49.086;9.284;2022-10-20T06:41:46;12.20;75.80
4312;DHT22;2169;49.086;9.284;2022-10-20T06:44:15;12.20;75.90
4312;DHT22;2169;49.086;9.284;2022-10-20T06:46:42;12.20;75.80
4312;DHT22;2169;49.086;9.284;2022-10-20T06:49:11;12.20;75.80
4312;DHT22;2169;49.086;9.284;2022-10-20T06:51:38;12.20;75.90
4312;DHT22;2169;49.086;9.284;2022-10-20T06:54:05;12.30;76.00
4312;DHT22;2169;49.086;9.284;2022-10-20T06:56:33;12.30;76.00
4312;DHT22;2169;49.086;9.284;2022-10-20T06:59:01;12.30;76.00
4312;DHT22;2169;49.086;9.284;2022-10-20T07:01:29;12.30;76.10
4312;DHT22;2169;49.086;9.284;2022-10-20T07:03:58;12.30;76.10
4312;DHT22;2169;49.086;9.284;2022-10-20T07:06:30;12.40;76.20
4312;DHT22;2169;49.086;9.284;2022-10-20T07:08:58;12.40;76.30
4312;DHT22;2169;49.086;9.284;2022-10-20T07:11:26;12.40;76.30
4312;DHT22;2169;49.086;9.284;2022-10-20T07:13:53;12.50;76.40
4312;DHT22;2169;49.086;9.284;2022-10-20T07:16:22;12.60;76.50
4312;DHT22;2169;49.086;9.284;2022-10-20T07:18:50;12.60;76.50
4312;DHT22;2169;49.086;9.284;2022-10-20T07:21:19;12.60;76.40
4312;DHT22;2169;49.086;9.284;2022-10-20T07:23:48;12.70;76.60
4312;DHT22;2169;49.086;9.284;2022-10-20T07:26:18;12.70;76.50
4312;DHT22;2169;49.086;9.284;2022-10-20T07:28:46;12.70;76.60
4312;DHT22;2169;49.086;9.284;2022-10-20T07:31:15;12.80;76.60
4312;DHT22;2169;49.086;9.284;2022-10-20T07:33:42;12.80;76.60
4312;DHT22;2169;49.086;9.284;2022-10-20T07:36:13;12.90;76.70
4312;DHT22;2169;49.086;9.284;2022-10-20T07:38:41;12.90;76.70
4312;DHT22;2169;49.086;9.284;2022-10-20T07:41:09;13.00;76.70
4312;DHT22;2169;49.086;9.284;2022-10-20T07:43:37;13.10;76.80
4312;DHT22;2169;49.086;9.284;2022-10-20T07:46:04;13.10;76.80
4312;DHT22;2169;49.086;9.284;2022-10-20T07:48:31;13.20;76.90
4312;DHT22;2169;49.086;9.284;2022-10-20T07:51:16;13.20;76.80
4312;DHT22;2169;49.086;9.284;2022-10-20T07:53:43;13.30;76.80
4312;DHT22;2169;49.086;9.284;2022-10-20T07:56:11;13.40;76.90
4312;DHT22;2169;49.086;9.284;2022-10-20T07:58:38;13.40;76.80
4312;DHT22;2169;49.086;9.284;2022-10-20T08:01:06;13.50;76.80
4312;DHT22;2169;49.086;9.284;2022-10-20T08:03:33;13.50;76.80
4312;DHT22;2169;49.086;9.284;2022-10-20T08:06:02;13.60;76.80
4312;DHT22;2169;49.086;9.284;2022-10-20T08:08:29;13.60;76.80
4312;DHT22;2169;49.086;9.284;2022-10-20T08:10:56;13.70;76.80
4312;DHT22;2169;49.086;9.284;2022-10-20T08:13:25;13.80;76.90
4312;DHT22;2169;49.086;9.284;2022-10-20T08:15:52;13.80;76.80
4312;DHT22;2169;49.086;9.284;2022-10-20T08:18:19;13.90;76.80
4312;DHT22;2169;49.086;9.284;2022-10-20T08:20:45;13.90;76.70
4312;DHT22;2169;49.086;9.284;2022-10-20T08:23:13;14.00;76.70
4312;DHT22;2169;49.086;9.284;2022-10-20T08:25:40;14.10;76.80
4312;DHT22;2169;49.086;9.284;2022-10-20T08:28:07;14.10;76.80
4312;DHT22;2169;49.086;9.284;2022-10-20T08:30:35;14.20;76.70
4312;DHT22;2169;49.086;9.284;2022-10-20T08:33:02;14.30;76.80
4312;DHT22;2169;49.086;9.284;2022-10-20T08:35:29;14.40;76.70
4312;DHT22;2169;49.086;9.284;2022-10-20T08:37:56;14.50;76.70
4312;DHT22;2169;49.086;9.284;2022-10-20T08:40:25;14.50;76.70
4312;DHT22;2169;49.086;9.284;2022-10-20T08:42:52;14.60;76.70
4312;DHT22;2169;49.086;9.284;2022-10-20T08:45:21;14.70;76.60
4312;DHT22;2169;49.086;9.284;2022-10-20T08:47:52;14.80;76.60
4312;DHT22;2169;49.086;9.284;2022-10-20T08:50:20;15.00;76.70
4312;DHT22;2169;49.086;9.284;2022-10-20T08:52:52;15.10;76.70
4312;DHT22;2169;49.086;9.284;2022-10-20T08:55:25;15.20;76.60
4312;DHT22;2169;49.086;9.284;2022-10-20T08:57:57;15.20;76.40
4312;DHT22;2169;49.086;9.284;2022-10-20T09:00:25;15.30;76.40
4312;DHT22;2169;49.086;9.284;2022-10-20T09:02:54;15.40;76.20
4312;DHT22;2169;49.086;9.284;2022-10-20T09:05:24;15.50;76.10
4312;DHT22;2169;49.086;9.284;2022-10-20T09:07:52;15.60;76.10
4312;DHT22;2169;49.086;9.284;2022-10-20T09:10:29;15.60;75.80
4312;DHT22;2169;49.086;9.284;2022-10-20T09:12:57;15.70;75.60
4312;DHT22;2169;49.086;9.284;2022-10-20T09:15:25;15.80;75.50
4312;DHT22;2169;49.086;9.284;2022-10-20T09:17:55;15.90;75.40
4312;DHT22;2169;49.086;9.284;2022-10-20T09:20:27;16.00;75.20
4312;DHT22;2169;49.086;9.284;2022-10-20T09:22:55;16.10;75.10
4312;DHT22;2169;49.086;9.284;2022-10-20T09:25:24;16.10;74.80
4312;DHT22;2169;49.086;9.284;2022-10-20T09:27:52;16.20;74.60
4312;DHT22;2169;49.086;9.284;2022-10-20T09:30:23;16.20;74.40
4312;DHT22;2169;49.086;9.284;2022-10-20T09:32:50;16.30;74.20
4312;DHT22;2169;49.086;9.284;2022-10-20T09:35:22;16.40;74.10
4312;DHT22;2169;49.086;9.284;2022-10-20T09:38:01;16.60;74.00
4312;DHT22;2169;49.086;9.284;2022-10-20T09:40:29;16.70;73.80
4312;DHT22;2169;49.086;9.284;2022-10-20T09:42:58;16.80;73.70
4312;DHT22;2169;49.086;9.284;2022-10-20T09:45:28;16.90;73.50
4312;DHT22;2169;49.086;9.284;2022-10-20T09:48:00;17.00;73.30
4312;DHT22;2169;49.086;9.284;2022-10-20T09:50:32;17.10;73.10
4312;DHT22;2169;49.086;9.284;2022-10-20T09:53:03;17.10;72.70
4312;DHT22;2169;49.086;9.284;2022-10-20T09:55:32;17.20;72.40
4312;DHT22;2169;49.086;9.284;2022-10-20T09:58:01;17.30;72.20
4312;DHT22;2169;49.086;9.284;2022-10-20T10:00:31;17.30;71.90
4312;DHT22;2169;49.086;9.284;2022-10-20T10:03:15;17.40;71.80
4312;DHT22;2169;49.086;9.284;2022-10-20T10:05:48;17.50;71.60
4312;DHT22;2169;49.086;9.284;2022-10-20T10:08:16;17.60;72.00
4312;DHT22;2169;49.086;9.284;2022-10-20T10:10:45;17.70;71.30
4312;DHT22;2169;49.086;9.284;2022-10-20T10:13:23;17.70;70.90
4312;DHT22;2169;49.086;9.284;2022-10-20T10:15:59;17.80;70.70
4312;DHT22;2169;49.086;9.284;2022-10-20T10:18:27;17.90;70.60
4312;DHT22;2169;49.086;9.284;2022-10-20T10:21:00;17.90;70.30
4312;DHT22;2169;49.086;9.284;2022-10-20T10:23:29;18.00;70.00
4312;DHT22;2169;49.086;9.284;2022-10-20T10:25:58;18.10;69.90
4312;DHT22;2169;49.086;9.284;2022-10-20T10:28:34;18.10;69.70
4312;DHT22;2169;49.086;9.284;2022-10-20T10:31:19;18.20;69.50
4312;DHT22;2169;49.086;9.284;2022-10-20T10:33:48;18.30;69.50
4312;DHT22;2169;49.086;9.284;2022-10-20T10:36:24;18.30;69.40
4312;DHT22;2169;49.086;9.284;2022-10-20T10:38:53;18.40;69.10
4312;DHT22;2169;49.086;9.284;2022-10-20T10:41:27;18.50;69.20
4312;DHT22;2169;49.086;9.284;2022-10-20T10:44:04;18.60;69.10
4312;DHT22;2169;49.086;9.284;2022-10-20T10:46:35;18.60;68.90
4312;DHT22;2169;49.086;9.284;2022-10-20T10:49:35;18.70;68.80
4312;DHT22;2169;49.086;9.284;2022-10-20T10:52:16;18.80;68.70
4312;DHT22;2169;49.086;9.284;2022-10-20T10:54:59;18.80;68.50
4312;DHT22;2169;49.086;9.284;2022-10-20T10:57:30;18.90;68.20
4312;DHT22;2169;49.086;9.284;2022-10-20T11:00:01;18.90;68.00
4312;DHT22;2169;49.086;9.284;2022-10-20T11:03:00;18.90;67.70
4312;DHT22;2169;49.086;9.284;2022-10-20T11:05:47;19.00;67.70
4312;DHT22;2169;49.086;9.284;2022-10-20T11:08:30;19.00;67.70
4312;DHT22;2169;49.086;9.284;2022-10-20T11:11:03;19.10;67.70
4312;DHT22;2169;49.086;9.284;2022-10-20T11:13:36;19.10;68.00
4312;DHT22;2169;49.086;9.284;2022-10-20T11:16:14;19.10;67.10
4312;DHT22;2169;49.086;9.284;2022-10-20T11:18:59;19.20;67.10
4312;DHT22;2169;49.086;9.284;2022-10-20T11:21:36;19.20;66.90
4312;DHT22;2169;49.086;9.284;2022-10-20T11:24:15;19.20;66.90
4312;DHT22;2169;49.086;9.284;2022-10-20T11:26:46;19.30;66.90
4312;DHT22;2169;49.086;9.284;2022-10-20T11:29:20;19.40;66.90
4312;DHT22;2169;49.086;9.284;2022-10-20T11:31:51;19.40;66.80
4312;DHT22;2169;49.086;9.284;2022-10-20T11:34:25;19.40;66.60
4312;DHT22;2169;49.086;9.284;2022-10-20T11:36:59;19.50;66.50
4312;DHT22;2169;49.086;9.284;2022-10-20T11:39:35;19.50;66.40
4312;DHT22;2169;49.086;9.284;2022-10-20T11:42:13;19.50;66.30
4312;DHT22;2169;49.086;9.284;2022-10-20T11:44:45;19.60;66.30
4312;DHT22;2169;49.086;9.284;2022-10-20T11:47:16;19.60;66.30
4312;DHT22;2169;49.086;9.284;2022-10-20T11:49:45;19.60;66.20
4312;DHT22;2169;49.086;9.284;2022-10-20T11:52:38;19.60;66.10
4312;DHT22;2169;49.086;9.284;2022-10-20T11:58:29;19.70;66.00
4312;DHT22;2169;49.086;9.284;2022-10-20T12:01:09;19.80;66.00
4312;DHT22;2169;49.086;9.284;2022-10-20T12:04:21;19.80;65.90
4312;DHT22;2169;49.086;9.284;2022-10-20T12:07:05;19.80;65.70
4312;DHT22;2169;49.086;9.284;2022-10-20T12:09:58;19.80;65.60
4312;DHT22;2169;49.086;9.284;2022-10-20T12:12:33;19.80;65.30
4312;DHT22;2169;49.086;9.284;2022-10-20T12:15:18;19.80;65.30
4312;DHT22;2169;49.086;9.284;2022-10-20T12:17:46;19.80;65.20
4312;DHT22;2169;49.086;9.284;2022-10-20T12:23:56;19.80;65.80
4312;DHT22;2169;49.086;9.284;2022-10-20T12:30:02;19.90;65.30
4312;DHT22;2169;49.086;9.284;2022-10-20T12:33:07;19.90;65.20
4312;DHT22;2169;49.086;9.284;2022-10-20T12:35:56;19.90;65.10
4312;DHT22;2169;49.086;9.284;2022-10-20T12:38:23;19.90;65.20
4312;DHT22;2169;49.086;9.284;2022-10-20T12:40:53;19.90;65.00
4312;DHT22;2169;49.086;9.284;2022-10-20T12:43:34;19.90;64.90
4312;DHT22;2169;49.086;9.284;2022-10-20T12:46:18;19.90;64.90
4312;DHT22;2169;49.086;9.284;2022-10-20T12:48:47;19.90;64.90
4312;DHT22;2169;49.086;9.284;2022-10-20T12:51:31;19.90;64.80
4312;DHT22;2169;49.086;9.284;2022-10-20T12:54:03;19.90;64.70
4312;DHT22;2169;49.086;9.284;2022-10-20T12:56:35;19.80;64.60
4312;DHT22;2169;49.086;9.284;2022-10-20T12:59:19;19.90;64.70
4312;DHT22;2169;49.086;9.284;2022-10-20T13:05:26;19.90;64.40
4312;DHT22;2169;49.086;9.284;2022-10-20T13:08:18;19.90;64.40
4312;DHT22;2169;49.086;9.284;2022-10-20T13:10:47;19.90;64.40
4312;DHT22;2169;49.086;9.284;2022-10-20T13:13:41;19.80;64.40
4312;DHT22;2169;49.086;9.284;2022-10-20T13:16:16;19.80;64.50
4312;DHT22;2169;49.086;9.284;2022-10-20T13:18:46;19.80;64.70
4312;DHT22;2169;49.086;9.284;2022-10-20T13:21:25;19.80;64.70
4312;DHT22;2169;49.086;9.284;2022-10-20T13:23:58;19.80;64.70
4312;DHT22;2169;49.086;9.284;2022-10-20T13:26:28;19.80;65.00
4312;DHT22;2169;49.086;9.284;2022-10-20T13:28:58;19.80;65.20
4312;DHT22;2169;49.086;9.284;2022-10-20T13:31:29;19.80;65.40
4312;DHT22;2169;49.086;9.284;2022-10-20T13:34:03;19.80;65.70
4312;DHT22;2169;49.086;9.284;2022-10-20T13:36:48;19.80;66.00
4312;DHT22;2169;49.086;9.284;2022-10-20T13:39:22;19.80;66.10
4312;DHT22;2169;49.086;9.284;2022-10-20T13:42:03;19.70;66.30
4312;DHT22;2169;49.086;9.284;2022-10-20T13:44:38;19.70;66.50
4312;DHT22;2169;49.086;9.284;2022-10-20T13:47:30;19.70;66.70
4312;DHT22;2169;49.086;9.284;2022-10-20T13:50:04;19.70;66.80
4312;DHT22;2169;49.086;9.284;2022-10-20T13:52:37;19.60;66.90
4312;DHT22;2169;49.086;9.284;2022-10-20T13:55:05;19.60;66.90
4312;DHT22;2169;49.086;9.284;2022-10-20T13:57:34;19.50;66.90
4312;DHT22;2169;49.086;9.284;2022-10-20T14:00:04;19.40;67.00
4312;DHT22;2169;49.086;9.284;2022-10-20T14:02:51;19.40;67.20
4312;DHT22;2169;49.086;9.284;2022-10-20T14:05:20;19.40;67.40
4312;DHT22;2169;49.086;9.284;2022-10-20T14:07:48;19.30;67.30
4312;DHT22;2169;49.086;9.284;2022-10-20T14:10:21;19.30;67.40
4312;DHT22;2169;49.086;9.284;2022-10-20T14:12:49;19.30;67.50
4312;DHT22;2169;49.086;9.284;2022-10-20T14:15:22;19.30;67.50
4312;DHT22;2169;49.086;9.284;2022-10-20T14:18:01;19.30;67.60
4312;DHT22;2169;49.086;9.284;2022-10-20T14:20:29;19.20;67.50
4312;DHT22;2169;49.086;9.284;2022-10-20T14:22:59;19.20;67.60
4312;DHT22;2169;49.086;9.284;2022-10-20T14:25:27;19.30;67.80
4312;DHT22;2169;49.086;9.284;2022-10-20T14:27:55;19.30;67.90
4312;DHT22;2169;49.086;9.284;2022-10-20T14:30:23;19.20;67.80
4312;DHT22;2169;49.086;9.284;2022-10-20T14:32:51;19.30;67.90
4312;DHT22;2169;49.086;9.284;2022-10-20T14:35:28;19.20;67.80
4312;DHT22;2169;49.086;9.284;2022-10-20T14:38:00;19.20;67.90
4312;DHT22;2169;49.086;9.284;2022-10-20T14:40:29;19.20;68.00
4312;DHT22;2169;49.086;9.284;2022-10-20T14:42:59;19.20;68.10
4312;DHT22;2169;49.086;9.284;2022-10-20T14:45:27;19.10;68.10
4312;DHT22;2169;49.086;9.284;2022-10-20T14:47:55;19.10;68.10
4312;DHT22;2169;49.086;9.284;2022-10-20T14:50:25;19.10;68.20
4312;DHT22;2169;49.086;9.284;2022-10-20T14:52:52;19.10;68.30
4312;DHT22;2169;49.086;9.284;2022-10-20T14:55:30;19.10;68.30
4312;DHT22;2169;49.086;9.284;2022-10-20T14:57:57;19.10;68.30
4312;DHT22;2169;49.086;9.284;2022-10-20T15:00:30;19.10;68.30
4312;DHT22;2169;49.086;9.284;2022-10-20T15:02:59;19.10;68.40
4312;DHT22;2169;49.086;9.284;2022-10-20T15:05:34;19.00;68.40
4312;DHT22;2169;49.086;9.284;2022-10-20T15:08:19;19.00;68.50
4312;DHT22;2169;49.086;9.284;2022-10-20T15:10:47;19.00;68.60
4312;DHT22;2169;49.086;9.284;2022-10-20T15:13:26;18.90;68.70
4312;DHT22;2169;49.086;9.284;2022-10-20T15:15:54;18.90;68.70
4312;DHT22;2169;49.086;9.284;2022-10-20T15:18:21;18.80;68.60
4312;DHT22;2169;49.086;9.284;2022-10-20T15:20:49;18.80;68.70
4312;DHT22;2169;49.086;9.284;2022-10-20T15:23:18;18.80;68.70
4312;DHT22;2169;49.086;9.284;2022-10-20T15:25:49;18.80;68.70
4312;DHT22;2169;49.086;9.284;2022-10-20T15:28:32;18.80;68.70
4312;DHT22;2169;49.086;9.284;2022-10-20T15:31:00;18.80;68.80
4312;DHT22;2169;49.086;9.284;2022-10-20T15:33:27;18.70;68.90
4312;DHT22;2169;49.086;9.284;2022-10-20T15:35:54;18.70;68.90
4312;DHT22;2169;49.086;9.284;2022-10-20T15:38:21;18.70;69.00
4312;DHT22;2169;49.086;9.284;2022-10-20T15:40:49;18.70;69.00
4312;DHT22;2169;49.086;9.284;2022-10-20T15:43:17;18.70;69.00
4312;DHT22;2169;49.086;9.284;2022-10-20T15:45:46;18.60;69.00
4312;DHT22;2169;49.086;9.284;2022-10-20T15:48:14;18.60;69.20
4312;DHT22;2169;49.086;9.284;2022-10-20T15:50:40;18.60;69.20
4312;DHT22;2169;49.086;9.284;2022-10-20T15:53:09;18.50;69.20
4312;DHT22;2169;49.086;9.284;2022-10-20T15:55:39;18.50;69.30
4312;DHT22;2169;49.086;9.284;2022-10-20T15:58:07;18.50;69.30
4312;DHT22;2169;49.086;9.284;2022-10-20T16:00:34;18.40;69.30
4312;DHT22;2169;49.086;9.284;2022-10-20T16:03:01;18.40;69.40
4312;DHT22;2169;49.086;9.284;2022-10-20T16:05:28;18.40;69.50
4312;DHT22;2169;49.086;9.284;2022-10-20T16:07:55;18.40;69.50
4312;DHT22;2169;49.086;9.284;2022-10-20T16:10:24;18.40;69.50
4312;DHT22;2169;49.086;9.284;2022-10-20T16:12:52;18.40;69.60
4312;DHT22;2169;49.086;9.284;2022-10-20T16:15:21;18.40;69.60
4312;DHT22;2169;49.086;9.284;2022-10-20T16:17:47;18.40;69.50
4312;DHT22;2169;49.086;9.284;2022-10-20T16:20:14;18.30;69.40
4312;DHT22;2169;49.086;9.284;2022-10-20T16:22:41;18.30;69.50
4312;DHT22;2169;49.086;9.284;2022-10-20T16:25:08;18.30;69.50
4312;DHT22;2169;49.086;9.284;2022-10-20T16:27:35;18.20;69.50
4312;DHT22;2169;49.086;9.284;2022-10-20T16:30:03;18.20;69.50
4312;DHT22;2169;49.086;9.284;2022-10-20T16:32:32;18.20;69.50
4312;DHT22;2169;49.086;9.284;2022-10-20T16:34:58;18.10;69.50
4312;DHT22;2169;49.086;9.284;2022-10-20T16:37:25;18.10;69.70
4312;DHT22;2169;49.086;9.284;2022-10-20T16:39:52;18.10;69.80
4312;DHT22;2169;49.086;9.284;2022-10-20T16:42:19;18.20;70.00